sensor_id;sensor_type;location;lat;lon;timestamp;pressure;altitude;pressure_sealevel;temperature;humidity
36932;BME280;22847;42.654;23.370;2022-09-28T00:00:26;93526.50;;;13.55;87.72
36932;BME280;22847;42.654;23.370;2022-09-28T00:02:55;93740.56;;;14.87;87.82
36932;BME280;22847;42.654;23.370;2022-09-28T00:05:22;93707.78;;;15.17;86.08
36932;BME280;22847;42.654;23.370;2022-09-28T00:07:52;93675.22;;;14.99;85.08
36932;BME280;22847;42.654;23.370;2022-09-28T00:10:18;93729.06;;;15.29;84.66
36932;BME280;22847;42.654;23.370;2022-09-28T00:12:50;93674.25;;;15.13;83.71
36932;BME280;22847;42.654;23.370;2022-09-28T00:15:16;93688.09;;;15.41;83.35
36932;BME280;22847;42.654;23.370;2022-09-28T00:17:42;93478.00;;;14.41;82.50
36932;BME280;22847;42.654;23.370;2022-09-28T00:20:09;93688.59;;;15.78;81.92
36932;BME280;22847;42.654;23.370;2022-09-28T00:22:36;93691.81;;;15.53;82.61
36932;BME280;22847;42.654;23.370;2022-09-28T00:25:02;93685.97;;;15.65;82.08
36932;BME280;22847;42.654;23.370;2022-09-28T00:27:27;93686.16;;;15.76;81.59
36932;BME280;22847;42.654;23.370;2022-09-28T00:29:52;93491.66;;;14.30;81.60
36932;BME280;22847;42.654;23.370;2022-09-28T00:32:19;93693.16;;;15.43;81.84
36932;BME280;22847;42.654;23.370;2022-09-28T00:34:45;93698.13;;;15.25;80.96
36932;BME280;22847;42.654;23.370;2022-09-28T00:37:13;93712.50;;;15.29;80.35
36932;BME280;22847;42.654;23.370;2022-09-28T00:39:39;93695.09;;;15.28;81.28
36932;BME280;22847;42.654;23.370;2022-09-28T00:47:39;93719.09;;;15.18;81.33
36932;BME280;22847;42.654;23.370;2022-09-28T00:50:08;93711.41;;;15.10;82.01
36932;BME280;22847;42.654;23.370;2022-09-28T00:55:38;93649.41;;;14.06;82.96
36932;BME280;22847;42.654;23.370;2022-09-28T00:58:07;93519.63;;;13.82;82.16
36932;BME280;22847;42.654;23.370;2022-09-28T01:00:34;93693.59;;;14.99;81.74
36932;BME280;22847;42.654;23.370;2022-09-28T01:03:00;93693.19;;;15.02;81.76
36932;BME280;22847;42.654;23.370;2022-09-28T01:05:25;93688.72;;;14.96;81.84
36932;BME280;22847;42.654;23.370;2022-09-28T01:07:54;93690.72;;;14.53;84.66
36932;BME280;22847;42.654;23.370;2022-09-28T01:10:21;93689.25;;;14.78;84.18
36932;BME280;22847;42.654;23.370;2022-09-28T01:12:46;93657.25;;;14.61;82.85
36932;BME280;22847;42.654;23.370;2022-09-28T01:15:12;93705.78;;;14.72;82.98
36932;BME280;22847;42.654;23.370;2022-09-28T01:21:02;93723.59;;;14.83;82.56
36932;BME280;22847;42.654;23.370;2022-09-28T01:27:09;93689.13;;;14.93;81.57
36932;BME280;22847;42.654;23.370;2022-09-28T01:30:03;93702.94;;;15.08;81.16
36932;BME280;22847;42.654;23.370;2022-09-28T01:35:14;93700.97;;;14.48;84.09
36932;BME280;22847;42.654;23.370;2022-09-28T01:37:47;93542.31;;;13.68;83.06
36932;BME280;22847;42.654;23.370;2022-09-28T01:40:14;93657.53;;;13.90;85.16
36932;BME280;22847;42.654;23.370;2022-09-28T01:42:43;93508.56;;;12.67;86.66
36932;BME280;22847;42.654;23.370;2022-09-28T01:45:19;93556.09;;;13.28;86.05
36932;BME280;22847;42.654;23.370;2022-09-28T01:47:48;93715.88;;;14.47;83.78
36932;BME280;22847;42.654;23.370;2022-09-28T01:50:17;93710.31;;;14.57;82.09
36932;BME280;22847;42.654;23.370;2022-09-28T01:52:52;93503.59;;;13.36;81.62
36932;BME280;22847;42.654;23.370;2022-09-28T01:58:14;93724.81;;;14.04;81.38
36932;BME280;22847;42.654;23.370;2022-09-28T02:00:44;93497.94;;;12.33;84.36
36932;BME280;22847;42.654;23.370;2022-09-28T02:03:19;93715.06;;;13.55;87.35
36932;BME280;22847;42.654;23.370;2022-09-28T02:06:01;93743.91;;;13.76;86.39
36932;BME280;22847;42.654;23.370;2022-09-28T02:08:39;93722.41;;;13.88;85.45
36932;BME280;22847;42.654;23.370;2022-09-28T02:11:12;93673.00;;;13.42;86.00
36932;BME280;22847;42.654;23.370;2022-09-28T02:13:57;93748.47;;;13.53;89.38
36932;BME280;22847;42.654;23.370;2022-09-28T02:16:35;93702.59;;;13.78;86.51
36932;BME280;22847;42.654;23.370;2022-09-28T02:19:04;93730.16;;;13.74;86.53
36932;BME280;22847;42.654;23.370;2022-09-28T02:21:37;93746.63;;;13.68;88.50
36932;BME280;22847;42.654;23.370;2022-09-28T02:24:16;93611.94;;;13.14;88.40
36932;BME280;22847;42.654;23.370;2022-09-28T02:26:44;93652.31;;;13.26;88.73
36932;BME280;22847;42.654;23.370;2022-09-28T02:29:12;93713.38;;;13.48;89.50
36932;BME280;22847;42.654;23.370;2022-09-28T02:31:38;93712.84;;;13.37;92.53
36932;BME280;22847;42.654;23.370;2022-09-28T02:34:03;93699.09;;;13.50;90.85
36932;BME280;22847;42.654;23.370;2022-09-28T02:36:29;93725.94;;;13.95;89.27
36932;BME280;22847;42.654;23.370;2022-09-28T02:38:56;93615.47;;;12.91;90.24
36932;BME280;22847;42.654;23.370;2022-09-28T02:46:49;93708.34;;;13.46;92.47
36932;BME280;22847;42.654;23.370;2022-09-28T02:49:38;93615.38;;;12.85;92.88
36932;BME280;22847;42.654;23.370;2022-09-28T02:58:20;93508.88;;;12.07;93.20
36932;BME280;22847;42.654;23.370;2022-09-28T03:00:56;93701.59;;;13.37;91.50
36932;BME280;22847;42.654;23.370;2022-09-28T03:03:40;93672.06;;;13.64;88.78
36932;BME280;22847;42.654;23.370;2022-09-28T03:06:22;93720.34;;;13.83;89.68
36932;BME280;22847;42.654;23.370;2022-09-28T03:09:04;93730.91;;;14.11;87.78
36932;BME280;22847;42.654;23.370;2022-09-28T03:11:42;93701.72;;;13.50;89.02
36932;BME280;22847;42.654;23.370;2022-09-28T03:14:10;93677.50;;;13.48;89.35
36932;BME280;22847;42.654;23.370;2022-09-28T03:16:35;93775.16;;;13.99;88.46
36932;BME280;22847;42.654;23.370;2022-09-28T03:19:01;93741.56;;;13.46;91.46
36932;BME280;22847;42.654;23.370;2022-09-28T03:21:26;93758.97;;;13.53;90.87
36932;BME280;22847;42.654;23.370;2022-09-28T03:23:51;93713.75;;;13.66;86.94
36932;BME280;22847;42.654;23.370;2022-09-28T03:26:17;93537.03;;;12.41;87.31
36932;BME280;22847;42.654;23.370;2022-09-28T03:28:44;93559.19;;;12.45;86.28
36932;BME280;22847;42.654;23.370;2022-09-28T03:31:09;93709.31;;;13.45;85.83
36932;BME280;22847;42.654;23.370;2022-09-28T03:33:34;93699.53;;;13.54;85.20
36932;BME280;22847;42.654;23.370;2022-09-28T03:36:00;93714.81;;;13.71;84.45
36932;BME280;22847;42.654;23.370;2022-09-28T03:38:26;93742.50;;;13.59;86.78
36932;BME280;22847;42.654;23.370;2022-09-28T03:41:00;93756.56;;;13.94;85.64
36932;BME280;22847;42.654;23.370;2022-09-28T03:43:25;93758.97;;;13.74;86.12
36932;BME280;22847;42.654;23.370;2022-09-28T03:45:52;93769.69;;;13.58;87.92
36932;BME280;22847;42.654;23.370;2022-09-28T03:48:23;93698.53;;;13.55;86.64
36932;BME280;22847;42.654;23.370;2022-09-28T03:50:54;93780.03;;;14.02;85.54
36932;BME280;22847;42.654;23.370;2022-09-28T03:53:20;93527.44;;;12.48;86.31
36932;BME280;22847;42.654;23.370;2022-09-28T03:55:45;93761.50;;;14.04;86.48
36932;BME280;22847;42.654;23.370;2022-09-28T03:58:11;93779.47;;;13.85;86.97
36932;BME280;22847;42.654;23.370;2022-09-28T04:00:37;93754.00;;;14.01;86.18
36932;BME280;22847;42.654;23.370;2022-09-28T04:03:03;93567.63;;;12.97;85.40
36932;BME280;22847;42.654;23.370;2022-09-28T04:05:28;93583.03;;;13.07;85.04
36932;BME280;22847;42.654;23.370;2022-09-28T04:07:54;93776.97;;;14.20;86.34
36932;BME280;22847;42.654;23.370;2022-09-28T04:10:23;93736.88;;;13.41;90.42
36932;BME280;22847;42.654;23.370;2022-09-28T04:12:53;93697.91;;;13.53;89.06
36932;BME280;22847;42.654;23.370;2022-09-28T04:15:19;93751.63;;;14.06;88.12
36932;BME280;22847;42.654;23.370;2022-09-28T04:17:44;93721.38;;;13.82;88.52
36932;BME280;22847;42.654;23.370;2022-09-28T04:20:09;93731.34;;;13.93;88.22
36932;BME280;22847;42.654;23.370;2022-09-28T04:22:35;93746.41;;;14.34;86.58
36932;BME280;22847;42.654;23.370;2022-09-28T04:25:03;93753.81;;;14.45;85.89
36932;BME280;22847;42.654;23.370;2022-09-28T04:27:28;93582.25;;;13.49;85.31
36932;BME280;22847;42.654;23.370;2022-09-28T04:30:13;93781.78;;;14.59;85.09
36932;BME280;22847;42.654;23.370;2022-09-28T04:32:38;93748.25;;;14.54;85.38
36932;BME280;22847;42.654;23.370;2022-09-28T04:35:04;93761.38;;;14.61;85.44
36932;BME280;22847;42.654;23.370;2022-09-28T04:37:30;93760.56;;;14.60;85.06
36932;BME280;22847;42.654;23.370;2022-09-28T04:39:56;93754.72;;;14.58;84.15
36932;BME280;22847;42.654;23.370;2022-09-28T04:42:21;93737.56;;;14.35;85.45
36932;BME280;22847;42.654;23.370;2022-09-28T04:44:47;93762.03;;;14.63;84.67
36932;BME280;22847;42.654;23.370;2022-09-28T04:47:12;93567.81;;;13.32;84.19
36932;BME280;22847;42.654;23.370;2022-09-28T04:49:38;93726.13;;;14.42;83.08
36932;BME280;22847;42.654;23.370;2022-09-28T04:52:04;93749.81;;;14.06;87.07
36932;BME280;22847;42.654;23.370;2022-09-28T04:54:30;93752.47;;;14.34;86.02
36932;BME280;22847;42.654;23.370;2022-09-28T04:56:56;93754.38;;;14.40;85.41
36932;BME280;22847;42.654;23.370;2022-09-28T04:59:21;93739.31;;;14.49;84.83
36932;BME280;22847;42.654;23.370;2022-09-28T05:01:47;93752.25;;;14.08;86.91
36932;BME280;22847;42.654;23.370;2022-09-28T05:04:13;93741.69;;;14.44;85.11
36932;BME280;22847;42.654;23.370;2022-09-28T05:06:39;93744.19;;;14.86;84.01
36932;BME280;22847;42.654;23.370;2022-09-28T05:09:05;93592.97;;;14.10;83.16
36932;BME280;22847;42.654;23.370;2022-09-28T05:11:31;93545.69;;;13.62;83.61
36932;BME280;22847;42.654;23.370;2022-09-28T05:13:56;93750.31;;;15.00;83.63
36932;BME280;22847;42.654;23.370;2022-09-28T05:16:21;93757.63;;;15.04;83.85
36932;BME280;22847;42.654;23.370;2022-09-28T05:18:53;93755.50;;;15.21;84.01
36932;BME280;22847;42.654;23.370;2022-09-28T05:21:19;93791.19;;;15.50;82.70
36932;BME280;22847;42.654;23.370;2022-09-28T05:23:46;93772.06;;;15.62;81.60
36932;BME280;22847;42.654;23.370;2022-09-28T05:26:11;93609.66;;;14.64;80.18
36932;BME280;22847;42.654;23.370;2022-09-28T05:28:37;93790.09;;;15.72;80.47
36932;BME280;22847;42.654;23.370;2022-09-28T05:31:03;93776.06;;;15.52;81.31
36932;BME280;22847;42.654;23.370;2022-09-28T05:33:30;93784.91;;;15.10;84.00
36932;BME280;22847;42.654;23.370;2022-09-28T05:35:56;93606.53;;;14.48;82.56
36932;BME280;22847;42.654;23.370;2022-09-28T05:38:22;93661.69;;;17.32;73.21
36932;BME280;22847;42.654;23.370;2022-09-28T05:40:48;93468.63;;;19.37;61.33
36932;BME280;22847;42.654;23.370;2022-09-28T05:43:14;93780.91;;;24.55;50.66
36932;BME280;22847;42.654;23.370;2022-09-28T05:45:39;93741.44;;;26.19;44.74
36932;BME280;22847;42.654;23.370;2022-09-28T05:48:04;93786.56;;;26.98;42.70
36932;BME280;22847;42.654;23.370;2022-09-28T05:50:30;93761.88;;;26.71;43.07
36932;BME280;22847;42.654;23.370;2022-09-28T05:53:03;93756.06;;;26.94;42.75
36932;BME280;22847;42.654;23.370;2022-09-28T05:55:30;93756.88;;;28.25;40.29
36932;BME280;22847;42.654;23.370;2022-09-28T05:58:00;93745.94;;;28.60;39.60
36932;BME280;22847;42.654;23.370;2022-09-28T06:00:26;93600.31;;;27.02;40.70
36932;BME280;22847;42.654;23.370;2022-09-28T06:02:59;93727.13;;;27.12;42.89
36932;BME280;22847;42.654;23.370;2022-09-28T06:05:25;93760.84;;;26.97;43.52
36932;BME280;22847;42.654;23.370;2022-09-28T06:07:53;93552.06;;;25.30;44.79
36932;BME280;22847;42.654;23.370;2022-09-28T06:10:19;93764.75;;;26.29;45.27
36932;BME280;22847;42.654;23.370;2022-09-28T06:12:45;93722.34;;;25.86;46.32
36932;BME280;22847;42.654;23.370;2022-09-28T06:15:13;93590.69;;;23.48;48.78
36932;BME280;22847;42.654;23.370;2022-09-28T06:17:38;93644.72;;;24.24;48.59
36932;BME280;22847;42.654;23.370;2022-09-28T06:20:04;93711.94;;;24.95;48.41
36932;BME280;22847;42.654;23.370;2022-09-28T06:22:29;93620.31;;;24.37;48.99
36932;BME280;22847;42.654;23.370;2022-09-28T06:24:55;93759.59;;;25.18;48.46
36932;BME280;22847;42.654;23.370;2022-09-28T06:27:20;93776.25;;;25.36;48.78
36932;BME280;22847;42.654;23.370;2022-09-28T06:29:46;93692.50;;;24.68;49.42
36932;BME280;22847;42.654;23.370;2022-09-28T06:32:11;93775.13;;;24.90;50.03
36932;BME280;22847;42.654;23.370;2022-09-28T06:34:38;93793.41;;;25.08;49.80
36932;BME280;22847;42.654;23.370;2022-09-28T06:37:03;93717.50;;;24.57;50.24
36932;BME280;22847;42.654;23.370;2022-09-28T06:39:29;93760.59;;;24.49;51.30
36932;BME280;22847;42.654;23.370;2022-09-28T06:41:54;93772.94;;;24.60;51.84
36932;BME280;22847;42.654;23.370;2022-09-28T06:44:20;93620.31;;;22.92;53.18
36932;BME280;22847;42.654;23.370;2022-09-28T06:46:45;93751.84;;;22.28;56.46
36932;BME280;22847;42.654;23.370;2022-09-28T06:49:11;93753.66;;;22.55;56.86
36932;BME280;22847;42.654;23.370;2022-09-28T06:51:36;93587.72;;;21.51;56.74
36932;BME280;22847;42.654;23.370;2022-09-28T06:54:02;93618.31;;;21.42;56.81
36932;BME280;22847;42.654;23.370;2022-09-28T06:56:27;93465.72;;;20.03;58.34
36932;BME280;22847;42.654;23.370;2022-09-28T06:58:53;93800.25;;;21.55;59.91
36932;BME280;22847;42.654;23.370;2022-09-28T07:01:18;93657.69;;;20.40;61.26
36932;BME280;22847;42.654;23.370;2022-09-28T07:03:45;93786.41;;;20.41;62.31
36932;BME280;22847;42.654;23.370;2022-09-28T07:06:11;93773.22;;;19.93;63.25
36932;BME280;22847;42.654;23.370;2022-09-28T07:08:37;93802.59;;;20.03;64.42
36932;BME280;22847;42.654;23.370;2022-09-28T07:11:06;93595.72;;;18.69;64.89
36932;BME280;22847;42.654;23.370;2022-09-28T07:13:31;93780.16;;;19.76;65.46
36932;BME280;22847;42.654;23.370;2022-09-28T07:15:58;93786.16;;;19.83;65.65
36932;BME280;22847;42.654;23.370;2022-09-28T07:18:24;93787.66;;;20.09;65.65
36932;BME280;22847;42.654;23.370;2022-09-28T07:20:51;93773.84;;;20.37;64.72
36932;BME280;22847;42.654;23.370;2022-09-28T07:23:17;93809.94;;;20.49;63.55
36932;BME280;22847;42.654;23.370;2022-09-28T07:25:43;93811.00;;;20.60;64.45
36932;BME280;22847;42.654;23.370;2022-09-28T07:28:12;93812.78;;;20.78;63.62
36932;BME280;22847;42.654;23.370;2022-09-28T07:30:38;93753.59;;;19.83;65.60
36932;BME280;22847;42.654;23.370;2022-09-28T07:33:05;93626.69;;;18.80;65.97
36932;BME280;22847;42.654;23.370;2022-09-28T07:35:32;93756.88;;;19.96;64.11
36932;BME280;22847;42.654;23.370;2022-09-28T07:38:03;93669.09;;;18.85;66.49
36932;BME280;22847;42.654;23.370;2022-09-28T07:40:30;93794.94;;;19.41;67.69
36932;BME280;22847;42.654;23.370;2022-09-28T07:43:14;93761.00;;;19.92;65.92
36932;BME280;22847;42.654;23.370;2022-09-28T07:45:49;93804.97;;;21.06;63.36
36932;BME280;22847;42.654;23.370;2022-09-28T07:48:17;93783.53;;;20.96;62.40
36932;BME280;22847;42.654;23.370;2022-09-28T07:50:55;93772.88;;;21.77;60.31
36932;BME280;22847;42.654;23.370;2022-09-28T07:53:23;93663.50;;;21.47;59.69
36932;BME280;22847;42.654;23.370;2022-09-28T07:55:57;93772.84;;;21.89;58.58
36932;BME280;22847;42.654;23.370;2022-09-28T07:58:26;93755.34;;;21.25;59.50
36932;BME280;22847;42.654;23.370;2022-09-28T08:00:52;93820.25;;;20.69;61.17
36932;BME280;22847;42.654;23.370;2022-09-28T08:03:19;93682.25;;;20.06;61.53
36932;BME280;22847;42.654;23.370;2022-09-28T08:05:46;93838.41;;;21.07;61.51
36932;BME280;22847;42.654;23.370;2022-09-28T08:08:12;93840.22;;;20.95;61.50
36932;BME280;22847;42.654;23.370;2022-09-28T08:10:41;93818.13;;;20.48;61.93
36932;BME280;22847;42.654;23.370;2022-09-28T08:13:07;93817.59;;;20.69;62.07
36932;BME280;22847;42.654;23.370;2022-09-28T08:15:33;93779.19;;;20.48;61.68
36932;BME280;22847;42.654;23.370;2022-09-28T08:18:03;93667.38;;;19.93;62.23
36932;BME280;22847;42.654;23.370;2022-09-28T08:20:30;93623.53;;;19.56;62.15
36932;BME280;22847;42.654;23.370;2022-09-28T08:23:14;93839.13;;;20.73;62.86
36932;BME280;22847;42.654;23.370;2022-09-28T08:25:45;93760.34;;;20.57;63.07
36932;BME280;22847;42.654;23.370;2022-09-28T08:28:13;93799.94;;;21.16;61.73
36932;BME280;22847;42.654;23.370;2022-09-28T08:30:40;93810.50;;;21.74;59.66
36932;BME280;22847;42.654;23.370;2022-09-28T08:33:05;93811.59;;;22.42;57.46
36932;BME280;22847;42.654;23.370;2022-09-28T08:35:32;93808.69;;;22.72;55.76
36932;BME280;22847;42.654;23.370;2022-09-28T08:37:57;93780.13;;;23.12;54.54
36932;BME280;22847;42.654;23.370;2022-09-28T08:40:24;93840.28;;;23.85;53.18
36932;BME280;22847;42.654;23.370;2022-09-28T08:43:01;93651.56;;;23.23;51.84
36932;BME280;22847;42.654;23.370;2022-09-28T08:45:30;93794.47;;;24.80;51.38
36932;BME280;22847;42.654;23.370;2022-09-28T08:48:18;93775.38;;;24.34;50.39
36932;BME280;22847;42.654;23.370;2022-09-28T08:51:18;93767.28;;;24.51;49.96
36932;BME280;22847;42.654;23.370;2022-09-28T08:54:01;93802.53;;;23.49;52.04
36932;BME280;22847;42.654;23.370;2022-09-28T08:56:43;93826.41;;;24.05;51.98
36932;BME280;22847;42.654;23.370;2022-09-28T08:59:21;93787.88;;;24.61;51.79
36932;BME280;22847;42.654;23.370;2022-09-28T09:01:59;93776.47;;;24.65;50.71
36932;BME280;22847;42.654;23.370;2022-09-28T09:04:28;93788.88;;;24.28;51.62
36932;BME280;22847;42.654;23.370;2022-09-28T09:20:14;93619.09;;;24.55;47.77
36932;BME280;22847;42.654;23.370;2022-09-28T09:22:58;93790.38;;;25.68;47.21
36932;BME280;22847;42.654;23.370;2022-09-28T09:33:56;93769.75;;;26.10;45.77
36932;BME280;22847;42.654;23.370;2022-09-28T09:47:34;93737.75;;;26.36;44.27
36932;BME280;22847;42.654;23.370;2022-09-28T09:52:54;93659.94;;;25.45;43.00
36932;BME280;22847;42.654;23.370;2022-09-28T09:55:30;93750.03;;;25.64;43.89
36932;BME280;22847;42.654;23.370;2022-09-28T09:58:04;93663.16;;;25.00;45.71
36932;BME280;22847;42.654;23.370;2022-09-28T10:00:36;93749.44;;;26.09;44.51
36932;BME280;22847;42.654;23.370;2022-09-28T10:03:03;93621.22;;;25.37;42.42
36932;BME280;22847;42.654;23.370;2022-09-28T10:05:30;93754.78;;;26.14;42.54
36932;BME280;22847;42.654;23.370;2022-09-28T10:10:38;93741.53;;;26.50;43.14
36932;BME280;22847;42.654;23.370;2022-09-28T10:13:11;93747.69;;;26.50;42.79
36932;BME280;22847;42.654;23.370;2022-09-28T10:15:39;93596.00;;;25.70;42.12
36932;BME280;22847;42.654;23.370;2022-09-28T10:18:10;93721.22;;;26.59;40.14
36932;BME280;22847;42.654;23.370;2022-09-28T10:20:38;93591.88;;;25.47;40.70
36932;BME280;22847;42.654;23.370;2022-09-28T10:23:11;93611.44;;;25.63;40.40
36932;BME280;22847;42.654;23.370;2022-09-28T10:25:39;93746.41;;;26.83;40.81
36932;BME280;22847;42.654;23.370;2022-09-28T10:28:06;93723.38;;;26.52;40.69
36932;BME280;22847;42.654;23.370;2022-09-28T10:30:38;93640.22;;;26.38;40.00
36932;BME280;22847;42.654;23.370;2022-09-28T10:33:31;93716.72;;;26.90;38.96
36932;BME280;22847;42.654;23.370;2022-09-28T10:36:00;93557.53;;;25.76;39.79
36932;BME280;22847;42.654;23.370;2022-09-28T10:38:29;93661.78;;;26.01;39.57
36932;BME280;22847;42.654;23.370;2022-09-28T10:41:00;93536.06;;;25.36;39.25
36932;BME280;22847;42.654;23.370;2022-09-28T10:43:31;93576.75;;;25.68;39.66
36932;BME280;22847;42.654;23.370;2022-09-28T10:46:19;93702.50;;;26.54;39.88
36932;BME280;22847;42.654;23.370;2022-09-28T10:49:03;93722.88;;;26.90;39.50
36932;BME280;22847;42.654;23.370;2022-09-28T10:51:50;93548.22;;;26.09;37.58
36932;BME280;22847;42.654;23.370;2022-09-28T10:56:46;93662.41;;;26.94;37.84
36932;BME280;22847;42.654;23.370;2022-09-28T11:01:59;93668.81;;;26.98;37.54
36932;BME280;22847;42.654;23.370;2022-09-28T11:04:27;93688.81;;;27.36;36.75
36932;BME280;22847;42.654;23.370;2022-09-28T11:06:54;93664.19;;;27.29;36.74
36932;BME280;22847;42.654;23.370;2022-09-28T11:09:34;93626.56;;;26.85;35.73
36932;BME280;22847;42.654;23.370;2022-09-28T11:12:05;93681.13;;;27.15;37.25
36932;BME280;22847;42.654;23.370;2022-09-28T11:14:38;93696.06;;;27.31;37.35
36932;BME280;22847;42.654;23.370;2022-09-28T11:17:33;93680.00;;;27.21;34.69
36932;BME280;22847;42.654;23.370;2022-09-28T11:20:32;93671.47;;;27.19;37.42
36932;BME280;22847;42.654;23.370;2022-09-28T11:23:15;93514.84;;;26.37;36.27
36932;BME280;22847;42.654;23.370;2022-09-28T11:25:42;93502.00;;;26.18;35.50
36932;BME280;22847;42.654;23.370;2022-09-28T11:28:21;93622.00;;;27.01;34.37
36932;BME280;22847;42.654;23.370;2022-09-28T11:30:51;93530.31;;;26.40;35.15
36932;BME280;22847;42.654;23.370;2022-09-28T11:33:21;93660.19;;;27.27;34.90
36932;BME280;22847;42.654;23.370;2022-09-28T11:38:54;93650.53;;;27.31;33.75
36932;BME280;22847;42.654;23.370;2022-09-28T11:41:46;93651.13;;;27.18;33.69
36932;BME280;22847;42.654;23.370;2022-09-28T11:49:44;93559.16;;;25.87;34.47
36932;BME280;22847;42.654;23.370;2022-09-28T11:55:04;93668.81;;;26.68;34.09
36932;BME280;22847;42.654;23.370;2022-09-28T11:57:37;93660.78;;;26.88;35.87
36932;BME280;22847;42.654;23.370;2022-09-28T12:00:17;93652.47;;;26.80;34.08
36932;BME280;22847;42.654;23.370;2022-09-28T12:02:55;93514.53;;;25.72;35.81
36932;BME280;22847;42.654;23.370;2022-09-28T12:05:36;93648.75;;;26.40;37.54
36932;BME280;22847;42.654;23.370;2022-09-28T12:08:46;93609.94;;;26.12;37.28
36932;BME280;22847;42.654;23.370;2022-09-28T12:11:26;93639.28;;;25.87;35.83
36932;BME280;22847;42.654;23.370;2022-09-28T12:13:57;93630.75;;;25.80;36.03
36932;BME280;22847;42.654;23.370;2022-09-28T12:16:30;93619.50;;;25.73;35.51
36932;BME280;22847;42.654;23.370;2022-09-28T12:19:04;93474.97;;;24.67;36.61
36932;BME280;22847;42.654;23.370;2022-09-28T12:21:33;93641.88;;;25.57;36.11
36932;BME280;22847;42.654;23.370;2022-09-28T12:24:25;93584.31;;;24.77;37.10
36932;BME280;22847;42.654;23.370;2022-09-28T12:29:28;93647.06;;;24.84;37.87
36932;BME280;22847;42.654;23.370;2022-09-28T12:34:38;93638.00;;;24.85;37.88
36932;BME280;22847;42.654;23.370;2022-09-28T12:40:39;93639.00;;;24.79;37.22
36932;BME280;22847;42.654;23.370;2022-09-28T12:51:59;93649.31;;;25.03;36.38
36932;BME280;22847;42.654;23.370;2022-09-28T12:54:47;93637.41;;;24.78;37.35
36932;BME280;22847;42.654;23.370;2022-09-28T13:00:03;93577.78;;;24.53;38.76
36932;BME280;22847;42.654;23.370;2022-09-28T13:09:00;93680.03;;;24.73;37.72
36932;BME280;22847;42.654;23.370;2022-09-28T13:11:40;93495.00;;;24.22;37.57
36932;BME280;22847;42.654;23.370;2022-09-28T13:24:54;93653.03;;;24.65;38.26
36932;BME280;22847;42.654;23.370;2022-09-28T13:27:28;93199.41;;;21.96;37.68
36932;BME280;22847;42.654;23.370;2022-09-28T13:29:58;93634.63;;;25.00;37.33
36932;BME280;22847;42.654;23.370;2022-09-28T13:32:25;93481.19;;;24.30;36.83
36932;BME280;22847;42.654;23.370;2022-09-28T13:34:54;93635.50;;;25.11;37.21
36932;BME280;22847;42.654;23.370;2022-09-28T13:37:22;93645.13;;;25.17;36.52
36932;BME280;22847;42.654;23.370;2022-09-28T13:39:58;93402.81;;;24.21;36.81
36932;BME280;22847;42.654;23.370;2022-09-28T13:56:35;93628.13;;;25.33;36.88
36932;BME280;22847;42.654;23.370;2022-09-28T13:59:29;93661.97;;;25.74;37.07
36932;BME280;22847;42.654;23.370;2022-09-28T14:05:05;93619.72;;;25.61;36.65
36932;BME280;22847;42.654;23.370;2022-09-28T14:10:49;93638.66;;;25.55;36.88
36932;BME280;22847;42.654;23.370;2022-09-28T14:16:18;93452.88;;;23.87;37.04
36932;BME280;22847;42.654;23.370;2022-09-28T14:21:53;93433.31;;;23.67;37.88
36932;BME280;22847;42.654;23.370;2022-09-28T14:29:50;93581.41;;;24.78;38.96
36932;BME280;22847;42.654;23.370;2022-09-28T14:32:23;93614.53;;;25.35;37.92
36932;BME280;22847;42.654;23.370;2022-09-28T14:35:58;93615.63;;;25.39;38.68
36932;BME280;22847;42.654;23.370;2022-09-28T14:38:11;93578.59;;;24.90;39.19
36932;BME280;22847;42.654;23.370;2022-09-28T14:43:55;93638.41;;;25.09;34.37
36932;BME280;22847;42.654;23.370;2022-09-28T14:46:33;93640.25;;;24.67;35.17
36932;BME280;22847;42.654;23.370;2022-09-28T14:54:51;93618.53;;;24.48;36.74
36932;BME280;22847;42.654;23.370;2022-09-28T14:57:20;93438.31;;;22.78;38.01
36932;BME280;22847;42.654;23.370;2022-09-28T14:59:46;93612.81;;;23.76;39.09
36932;BME280;22847;42.654;23.370;2022-09-28T15:02:31;93608.34;;;23.60;39.71
36932;BME280;22847;42.654;23.370;2022-09-28T15:07:49;93591.22;;;23.72;39.37
36932;BME280;22847;42.654;23.370;2022-09-28T15:10:25;93577.44;;;23.80;38.97
36932;BME280;22847;42.654;23.370;2022-09-28T15:12:52;93596.88;;;24.08;38.02
36932;BME280;22847;42.654;23.370;2022-09-28T15:15:39;93600.09;;;24.41;37.20
36932;BME280;22847;42.654;23.370;2022-09-28T15:20:47;93619.06;;;24.18;37.38
36932;BME280;22847;42.654;23.370;2022-09-28T15:23:33;93442.66;;;22.45;38.90
36932;BME280;22847;42.654;23.370;2022-09-28T15:26:01;93669.53;;;24.03;39.32
36932;BME280;22847;42.654;23.370;2022-09-28T15:28:27;93620.78;;;23.76;39.55
36932;BME280;22847;42.654;23.370;2022-09-28T15:31:03;93639.59;;;23.91;38.99
36932;BME280;22847;42.654;23.370;2022-09-28T15:33:33;93671.53;;;23.91;39.35
36932;BME280;22847;42.654;23.370;2022-09-28T15:36:28;93476.78;;;22.97;39.17
36932;BME280;22847;42.654;23.370;2022-09-28T15:38:59;93476.25;;;22.73;39.92
36932;BME280;22847;42.654;23.370;2022-09-28T15:41:25;93674.63;;;23.83;39.45
36932;BME280;22847;42.654;23.370;2022-09-28T15:44:07;93516.19;;;23.00;39.60
36932;BME280;22847;42.654;23.370;2022-09-28T15:46:45;93647.66;;;23.74;39.85
36932;BME280;22847;42.654;23.370;2022-09-28T15:49:25;93506.34;;;22.79;40.39
36932;BME280;22847;42.654;23.370;2022-09-28T15:51:54;93657.31;;;23.37;40.75
36932;BME280;22847;42.654;23.370;2022-09-28T15:54:30;93660.72;;;23.32;40.82
36932;BME280;22847;42.654;23.370;2022-09-28T15:57:00;93661.31;;;23.39;40.86
36932;BME280;22847;42.654;23.370;2022-09-28T15:59:34;93664.72;;;23.35;41.37